sensor_id;sensor_type;location;lat;lon;timestamp;P1;durP1;ratioP1;P2;durP2;ratioP2
13090;SDS011;6611;52.604;13.438;2023-06-24T00:04:55;8.90;;;7.63;;
13090;SDS011;6611;52.604;13.438;2023-06-24T00:10:00;8.77;;;7.33;;
13090;SDS011;6611;52.604;13.438;2023-06-24T00:15:05;10.47;;;8.23;;
13090;SDS011;6611;52.604;13.438;2023-06-24T00:20:09;9.63;;;7.87;;
13090;SDS011;6611;52.604;13.438;2023-06-24T00:25:14;10.70;;;8.93;;
13090;SDS011;6611;52.604;13.438;2023-06-24T00:30:17;13.13;;;9.13;;
13090;SDS011;6611;52.604;13.438;2023-06-24T00:35:18;10.50;;;8.60;;
13090;SDS011;6611;52.604;13.438;2023-06-24T00:40:20;9.67;;;8.13;;
13090;SDS011;6611;52.604;13.438;2023-06-24T00:45:23;13.33;;;9.67;;
13090;SDS011;6611;52.604;13.438;2023-06-24T00:50:25;10.20;;;9.10;;
13090;SDS011;6611;52.604;13.438;2023-06-24T00:55:27;13.20;;;9.83;;
13090;SDS011;6611;52.604;13.438;2023-06-24T01:00:30;12.00;;;10.07;;
13090;SDS011;6611;52.604;13.438;2023-06-24T01:05:34;14.60;;;11.83;;
13090;SDS011;6611;52.604;13.438;2023-06-24T01:10:36;12.97;;;10.67;;
13090;SDS011;6611;52.604;13.438;2023-06-24T01:15:39;14.70;;;11.10;;
13090;SDS011;6611;52.604;13.438;2023-06-24T01:20:41;15.40;;;11.03;;
13090;SDS011;6611;52.604;13.438;2023-06-24T01:25:55;14.83;;;11.87;;
13090;SDS011;6611;52.604;13.438;2023-06-24T01:31:27;15.90;;;11.60;;
13090;SDS011;6611;52.604;13.438;2023-06-24T01:36:33;13.20;;;10.40;;
13090;SDS011;6611;52.604;13.438;2023-06-24T01:41:40;14.53;;;11.57;;
13090;SDS011;6611;52.604;13.438;2023-06-24T01:46:44;14.27;;;11.90;;
13090;SDS011;6611;52.604;13.438;2023-06-24T01:51:49;16.10;;;11.57;;
13090;SDS011;6611;52.604;13.438;2023-06-24T01:56:51;13.43;;;10.73;;
13090;SDS011;6611;52.604;13.438;2023-06-24T02:01:57;13.23;;;10.73;;
13090;SDS011;6611;52.604;13.438;2023-06-24T02:06:59;12.30;;;9.90;;
13090;SDS011;6611;52.604;13.438;2023-06-24T02:12:03;12.90;;;10.20;;
13090;SDS011;6611;52.604;13.438;2023-06-24T02:17:09;12.80;;;10.20;;
13090;SDS011;6611;52.604;13.438;2023-06-24T02:22:13;13.47;;;10.87;;
13090;SDS011;6611;52.604;13.438;2023-06-24T02:27:16;13.73;;;11.40;;
13090;SDS011;6611;52.604;13.438;2023-06-24T02:32:19;13.97;;;10.73;;
13090;SDS011;6611;52.604;13.438;2023-06-24T02:37:21;14.00;;;10.73;;
13090;SDS011;6611;52.604;13.438;2023-06-24T02:42:22;12.13;;;10.53;;
13090;SDS011;6611;52.604;13.438;2023-06-24T02:47:25;12.33;;;10.80;;
13090;SDS011;6611;52.604;13.438;2023-06-24T02:52:28;14.57;;;10.67;;
13090;SDS011;6611;52.604;13.438;2023-06-24T02:57:30;13.00;;;10.87;;
13090;SDS011;6611;52.604;13.438;2023-06-24T03:02:34;15.07;;;10.97;;
13090;SDS011;6611;52.604;13.438;2023-06-24T03:07:36;12.93;;;10.00;;
13090;SDS011;6611;52.604;13.438;2023-06-24T03:12:39;13.07;;;9.50;;
13090;SDS011;6611;52.604;13.438;2023-06-24T03:17:42;10.90;;;8.97;;
13090;SDS011;6611;52.604;13.438;2023-06-24T03:22:44;13.00;;;10.13;;
13090;SDS011;6611;52.604;13.438;2023-06-24T03:27:45;12.50;;;9.97;;
13090;SDS011;6611;52.604;13.438;2023-06-24T03:32:48;10.80;;;9.27;;
13090;SDS011;6611;52.604;13.438;2023-06-24T03:37:50;12.30;;;9.40;;
13090;SDS011;6611;52.604;13.438;2023-06-24T03:42:52;10.63;;;8.83;;
13090;SDS011;6611;52.604;13.438;2023-06-24T03:47:55;16.37;;;10.07;;
13090;SDS011;6611;52.604;13.438;2023-06-24T03:52:56;14.80;;;9.50;;
13090;SDS011;6611;52.604;13.438;2023-06-24T03:57:58;12.37;;;8.90;;
13090;SDS011;6611;52.604;13.438;2023-06-24T04:03:01;12.90;;;8.90;;
13090;SDS011;6611;52.604;13.438;2023-06-24T04:08:03;14.20;;;9.80;;
13090;SDS011;6611;52.604;13.438;2023-06-24T04:13:06;12.90;;;9.47;;
13090;SDS011;6611;52.604;13.438;2023-06-24T04:18:09;11.97;;;9.03;;
13090;SDS011;6611;52.604;13.438;2023-06-24T04:23:11;12.40;;;9.00;;
13090;SDS011;6611;52.604;13.438;2023-06-24T04:28:14;11.70;;;9.03;;
13090;SDS011;6611;52.604;13.438;2023-06-24T04:33:17;13.30;;;9.77;;
13090;SDS011;6611;52.604;13.438;2023-06-24T04:38:19;12.97;;;9.47;;
13090;SDS011;6611;52.604;13.438;2023-06-24T04:43:20;12.37;;;9.13;;
13090;SDS011;6611;52.604;13.438;2023-06-24T04:48:23;13.10;;;9.50;;
13090;SDS011;6611;52.604;13.438;2023-06-24T04:53:25;10.57;;;8.53;;
13090;SDS011;6611;52.604;13.438;2023-06-24T04:58:27;12.90;;;9.30;;
13090;SDS011;6611;52.604;13.438;2023-06-24T05:03:30;11.03;;;8.93;;
13090;SDS011;6611;52.604;13.438;2023-06-24T05:08:32;13.00;;;8.97;;
13090;SDS011;6611;52.604;13.438;2023-06-24T05:13:33;9.50;;;8.20;;
13090;SDS011;6611;52.604;13.438;2023-06-24T05:18:36;11.83;;;8.83;;
13090;SDS011;6611;52.604;13.438;2023-06-24T05:23:38;11.70;;;8.90;;
13090;SDS011;6611;52.604;13.438;2023-06-24T05:28:40;9.00;;;7.73;;
13090;SDS011;6611;52.604;13.438;2023-06-24T05:33:43;12.10;;;8.53;;
13090;SDS011;6611;52.604;13.438;2023-06-24T05:38:44;10.50;;;7.67;;
13090;SDS011;6611;52.604;13.438;2023-06-24T05:43:46;10.03;;;8.20;;
13090;SDS011;6611;52.604;13.438;2023-06-24T05:48:49;13.40;;;8.87;;
13090;SDS011;6611;52.604;13.438;2023-06-24T05:53:50;10.27;;;7.80;;
13090;SDS011;6611;52.604;13.438;2023-06-24T05:58:52;10.40;;;7.37;;
13090;SDS011;6611;52.604;13.438;2023-06-24T06:03:55;11.67;;;7.67;;
13090;SDS011;6611;52.604;13.438;2023-06-24T06:08:57;10.80;;;7.83;;
13090;SDS011;6611;52.604;13.438;2023-06-24T06:14:00;8.50;;;6.47;;
13090;SDS011;6611;52.604;13.438;2023-06-24T06:19:03;9.20;;;7.60;;
13090;SDS011;6611;52.604;13.438;2023-06-24T06:24:05;10.10;;;7.57;;
13090;SDS011;6611;52.604;13.438;2023-06-24T06:29:07;9.97;;;7.30;;
13090;SDS011;6611;52.604;13.438;2023-06-24T06:34:10;12.93;;;7.10;;
13090;SDS011;6611;52.604;13.438;2023-06-24T06:39:12;8.57;;;6.10;;
13090;SDS011;6611;52.604;13.438;2023-06-24T06:44:13;8.47;;;6.83;;
13090;SDS011;6611;52.604;13.438;2023-06-24T06:49:16;9.13;;;7.27;;
13090;SDS011;6611;52.604;13.438;2023-06-24T06:54:18;11.37;;;7.03;;
13090;SDS011;6611;52.604;13.438;2023-06-24T06:59:20;7.53;;;6.23;;
13090;SDS011;6611;52.604;13.438;2023-06-24T07:04:23;8.90;;;6.07;;
13090;SDS011;6611;52.604;13.438;2023-06-24T07:09:24;7.30;;;5.73;;
13090;SDS011;6611;52.604;13.438;2023-06-24T07:14:26;6.60;;;5.67;;
13090;SDS011;6611;52.604;13.438;2023-06-24T07:19:29;7.93;;;5.13;;
13090;SDS011;6611;52.604;13.438;2023-06-24T07:24:30;7.60;;;5.67;;
13090;SDS011;6611;52.604;13.438;2023-06-24T07:29:32;5.93;;;4.60;;
13090;SDS011;6611;52.604;13.438;2023-06-24T07:34:35;6.50;;;4.70;;
13090;SDS011;6611;52.604;13.438;2023-06-24T07:39:37;5.77;;;4.30;;
13090;SDS011;6611;52.604;13.438;2023-06-24T07:44:38;9.27;;;4.67;;
13090;SDS011;6611;52.604;13.438;2023-06-24T07:49:41;4.97;;;4.30;;
13090;SDS011;6611;52.604;13.438;2023-06-24T07:54:43;4.90;;;4.40;;
13090;SDS011;6611;52.604;13.438;2023-06-24T07:59:44;6.93;;;4.20;;
13090;SDS011;6611;52.604;13.438;2023-06-24T08:04:48;4.90;;;4.03;;
13090;SDS011;6611;52.604;13.438;2023-06-24T08:09:49;5.43;;;4.77;;
13090;SDS011;6611;52.604;13.438;2023-06-24T08:14:51;6.57;;;4.27;;
13090;SDS011;6611;52.604;13.438;2023-06-24T08:19:54;4.80;;;4.17;;
13090;SDS011;6611;52.604;13.438;2023-06-24T08:24:55;5.27;;;4.07;;
13090;SDS011;6611;52.604;13.438;2023-06-24T08:29:57;4.83;;;4.10;;
13090;SDS011;6611;52.604;13.438;2023-06-24T08:35:00;5.47;;;4.20;;
13090;SDS011;6611;52.604;13.438;2023-06-24T08:40:02;5.63;;;4.23;;
13090;SDS011;6611;52.604;13.438;2023-06-24T08:45:06;4.97;;;4.37;;
13090;SDS011;6611;52.604;13.438;2023-06-24T08:50:11;5.10;;;4.20;;
13090;SDS011;6611;52.604;13.438;2023-06-24T08:55:13;5.90;;;4.27;;
13090;SDS011;6611;52.604;13.438;2023-06-24T09:00:18;4.23;;;3.80;;
13090;SDS011;6611;52.604;13.438;2023-06-24T09:05:21;5.47;;;4.07;;
13090;SDS011;6611;52.604;13.438;2023-06-24T09:10:30;4.37;;;3.97;;
13090;SDS011;6611;52.604;13.438;2023-06-24T09:15:32;6.87;;;4.40;;
13090;SDS011;6611;52.604;13.438;2023-06-24T09:20:36;5.40;;;4.43;;
13090;SDS011;6611;52.604;13.438;2023-06-24T09:25:48;3.87;;;3.53;;
13090;SDS011;6611;52.604;13.438;2023-06-24T09:31:06;5.03;;;3.33;;
13090;SDS011;6611;52.604;13.438;2023-06-24T09:36:12;4.57;;;4.00;;
13090;SDS011;6611;52.604;13.438;2023-06-24T09:41:14;6.87;;;3.50;;
13090;SDS011;6611;52.604;13.438;2023-06-24T09:46:16;3.83;;;3.30;;
13090;SDS011;6611;52.604;13.438;2023-06-24T09:51:20;4.70;;;3.50;;
13090;SDS011;6611;52.604;13.438;2023-06-24T09:56:23;3.60;;;3.30;;
13090;SDS011;6611;52.604;13.438;2023-06-24T10:01:25;3.90;;;3.00;;
13090;SDS011;6611;52.604;13.438;2023-06-24T10:06:29;4.30;;;3.47;;
13090;SDS011;6611;52.604;13.438;2023-06-24T10:11:31;5.60;;;3.17;;
13090;SDS011;6611;52.604;13.438;2023-06-24T10:16:33;3.67;;;2.73;;
13090;SDS011;6611;52.604;13.438;2023-06-24T10:21:46;3.30;;;3.00;;
13090;SDS011;6611;52.604;13.438;2023-06-24T10:26:49;3.07;;;2.80;;
13090;SDS011;6611;52.604;13.438;2023-06-24T10:31:52;2.83;;;2.63;;
13090;SDS011;6611;52.604;13.438;2023-06-24T10:36:58;5.30;;;2.90;;
13090;SDS011;6611;52.604;13.438;2023-06-24T10:47:27;6.27;;;3.30;;
13090;SDS011;6611;52.604;13.438;2023-06-24T10:52:31;3.17;;;2.87;;
13090;SDS011;6611;52.604;13.438;2023-06-24T10:57:33;4.93;;;2.77;;
13090;SDS011;6611;52.604;13.438;2023-06-24T11:02:35;3.77;;;2.97;;
13090;SDS011;6611;52.604;13.438;2023-06-24T11:07:39;4.03;;;3.63;;
13090;SDS011;6611;52.604;13.438;2023-06-24T11:12:41;3.97;;;3.63;;
13090;SDS011;6611;52.604;13.438;2023-06-24T11:17:43;2.63;;;2.40;;
13090;SDS011;6611;52.604;13.438;2023-06-24T11:22:46;4.82;;;3.30;;
13090;SDS011;6611;52.604;13.438;2023-06-24T11:27:49;3.70;;;3.25;;
13090;SDS011;6611;52.604;13.438;2023-06-24T11:32:52;3.53;;;3.13;;
13090;SDS011;6611;52.604;13.438;2023-06-24T11:37:57;3.90;;;2.95;;
13090;SDS011;6611;52.604;13.438;2023-06-24T11:43:00;3.35;;;2.90;;
13090;SDS011;6611;52.604;13.438;2023-06-24T11:48:03;3.33;;;2.90;;
13090;SDS011;6611;52.604;13.438;2023-06-24T11:53:09;4.38;;;3.08;;
13090;SDS011;6611;52.604;13.438;2023-06-24T11:58:18;4.88;;;2.88;;
13090;SDS011;6611;52.604;13.438;2023-06-24T12:03:22;3.47;;;3.17;;
13090;SDS011;6611;52.604;13.438;2023-06-24T12:08:25;3.83;;;3.40;;
13090;SDS011;6611;52.604;13.438;2023-06-24T12:13:27;3.17;;;2.85;;
13090;SDS011;6611;52.604;13.438;2023-06-24T12:18:28;4.00;;;2.85;;
13090;SDS011;6611;52.604;13.438;2023-06-24T12:23:31;3.05;;;2.70;;
13090;SDS011;6611;52.604;13.438;2023-06-24T12:28:33;3.92;;;2.95;;
13090;SDS011;6611;52.604;13.438;2023-06-24T12:33:35;3.63;;;2.72;;
13090;SDS011;6611;52.604;13.438;2023-06-24T12:38:38;4.63;;;3.40;;
13090;SDS011;6611;52.604;13.438;2023-06-24T12:43:40;5.55;;;3.63;;
13090;SDS011;6611;52.604;13.438;2023-06-24T12:48:42;3.90;;;3.55;;
13090;SDS011;6611;52.604;13.438;2023-06-24T12:53:45;5.32;;;3.25;;
13090;SDS011;6611;52.604;13.438;2023-06-24T12:58:47;5.03;;;3.45;;
13090;SDS011;6611;52.604;13.438;2023-06-24T13:03:48;4.35;;;3.33;;
13090;SDS011;6611;52.604;13.438;2023-06-24T13:08:51;7.13;;;3.40;;
13090;SDS011;6611;52.604;13.438;2023-06-24T13:13:54;4.03;;;3.10;;
13090;SDS011;6611;52.604;13.438;2023-06-24T13:18:56;3.85;;;3.45;;
13090;SDS011;6611;52.604;13.438;2023-06-24T13:23:59;5.20;;;3.20;;
13090;SDS011;6611;52.604;13.438;2023-06-24T13:29:00;3.90;;;3.50;;
13090;SDS011;6611;52.604;13.438;2023-06-24T13:34:02;6.07;;;3.50;;
13090;SDS011;6611;52.604;13.438;2023-06-24T13:39:07;3.92;;;3.50;;
13090;SDS011;6611;52.604;13.438;2023-06-24T13:44:11;3.65;;;3.28;;
13090;SDS011;6611;52.604;13.438;2023-06-24T13:49:13;3.30;;;3.00;;
13090;SDS011;6611;52.604;13.438;2023-06-24T13:54:16;5.10;;;3.55;;
13090;SDS011;6611;52.604;13.438;2023-06-24T13:59:18;4.57;;;3.45;;
13090;SDS011;6611;52.604;13.438;2023-06-24T14:04:19;4.72;;;3.25;;
13090;SDS011;6611;52.604;13.438;2023-06-24T14:09:22;4.57;;;3.58;;
13090;SDS011;6611;52.604;13.438;2023-06-24T14:14:24;4.60;;;3.15;;
13090;SDS011;6611;52.604;13.438;2023-06-24T14:19:26;3.83;;;3.30;;
13090;SDS011;6611;52.604;13.438;2023-06-24T14:24:29;4.65;;;3.28;;
13090;SDS011;6611;52.604;13.438;2023-06-24T14:29:31;4.15;;;3.40;;
13090;SDS011;6611;52.604;13.438;2023-06-24T14:34:32;3.60;;;2.90;;
13090;SDS011;6611;52.604;13.438;2023-06-24T14:39:35;4.03;;;3.33;;
13090;SDS011;6611;52.604;13.438;2023-06-24T14:44:37;3.97;;;3.20;;
13090;SDS011;6611;52.604;13.438;2023-06-24T14:49:38;3.85;;;3.25;;
13090;SDS011;6611;52.604;13.438;2023-06-24T14:54:41;3.78;;;3.22;;
13090;SDS011;6611;52.604;13.438;2023-06-24T14:59:43;4.20;;;3.38;;
13090;SDS011;6611;52.604;13.438;2023-06-24T15:04:45;7.22;;;3.28;;
13090;SDS011;6611;52.604;13.438;2023-06-24T15:09:48;4.20;;;2.97;;
13090;SDS011;6611;52.604;13.438;2023-06-24T15:14:49;4.20;;;2.92;;
13090;SDS011;6611;52.604;13.438;2023-06-24T15:19:51;3.80;;;3.13;;
13090;SDS011;6611;52.604;13.438;2023-06-24T15:24:54;5.30;;;3.50;;
13090;SDS011;6611;52.604;13.438;2023-06-24T15:29:56;4.95;;;3.50;;
13090;SDS011;6611;52.604;13.438;2023-06-24T15:34:57;3.38;;;2.80;;
13090;SDS011;6611;52.604;13.438;2023-06-24T15:40:00;3.47;;;3.17;;
13090;SDS011;6611;52.604;13.438;2023-06-24T15:45:02;4.00;;;3.17;;
13090;SDS011;6611;52.604;13.438;2023-06-24T15:50:05;4.07;;;3.28;;
13090;SDS011;6611;52.604;13.438;2023-06-24T15:55:09;3.85;;;2.85;;
13090;SDS011;6611;52.604;13.438;2023-06-24T16:00:11;3.30;;;3.00;;
13090;SDS011;6611;52.604;13.438;2023-06-24T16:05:13;3.83;;;3.20;;
13090;SDS011;6611;52.604;13.438;2023-06-24T16:10:17;3.92;;;3.20;;
13090;SDS011;6611;52.604;13.438;2023-06-24T16:15:18;3.30;;;2.85;;
13090;SDS011;6611;52.604;13.438;2023-06-24T16:20:20;3.40;;;3.10;;
13090;SDS011;6611;52.604;13.438;2023-06-24T16:25:23;4.03;;;3.10;;
13090;SDS011;6611;52.604;13.438;2023-06-24T16:30:25;4.13;;;3.20;;
13090;SDS011;6611;52.604;13.438;2023-06-24T16:35:26;3.67;;;3.10;;
13090;SDS011;6611;52.604;13.438;2023-06-24T16:40:29;4.93;;;3.20;;
13090;SDS011;6611;52.604;13.438;2023-06-24T16:45:31;3.85;;;3.00;;
13090;SDS011;6611;52.604;13.438;2023-06-24T16:50:33;3.78;;;3.00;;
13090;SDS011;6611;52.604;13.438;2023-06-24T16:55:38;4.47;;;4.07;;
13090;SDS011;6611;52.604;13.438;2023-06-24T17:00:40;5.13;;;3.75;;
13090;SDS011;6611;52.604;13.438;2023-06-24T17:05:41;3.90;;;3.42;;
13090;SDS011;6611;52.604;13.438;2023-06-24T17:10:44;3.50;;;3.17;;
13090;SDS011;6611;52.604;13.438;2023-06-24T17:15:46;4.35;;;2.83;;
13090;SDS011;6611;52.604;13.438;2023-06-24T17:20:48;3.42;;;3.08;;
13090;SDS011;6611;52.604;13.438;2023-06-24T17:25:51;3.80;;;2.87;;
13090;SDS011;6611;52.604;13.438;2023-06-24T17:30:52;3.30;;;2.60;;
13090;SDS011;6611;52.604;13.438;2023-06-24T17:35:54;3.93;;;2.90;;
13090;SDS011;6611;52.604;13.438;2023-06-24T17:40:57;4.13;;;3.30;;
13090;SDS011;6611;52.604;13.438;2023-06-24T17:45:59;4.93;;;2.87;;
13090;SDS011;6611;52.604;13.438;2023-06-24T17:51:00;4.13;;;2.40;;
13090;SDS011;6611;52.604;13.438;2023-06-24T17:56:04;4.00;;;2.37;;
13090;SDS011;6611;52.604;13.438;2023-06-24T18:01:06;4.50;;;3.07;;
13090;SDS011;6611;52.604;13.438;2023-06-24T18:06:14;2.50;;;2.30;;
13090;SDS011;6611;52.604;13.438;2023-06-24T18:11:17;2.77;;;2.13;;
13090;SDS011;6611;52.604;13.438;2023-06-24T18:16:19;3.60;;;2.43;;
13090;SDS011;6611;52.604;13.438;2023-06-24T18:21:20;4.43;;;2.67;;
13090;SDS011;6611;52.604;13.438;2023-06-24T18:26:23;3.47;;;2.43;;
13090;SDS011;6611;52.604;13.438;2023-06-24T18:31:26;3.47;;;2.47;;
13090;SDS011;6611;52.604;13.438;2023-06-24T18:36:27;3.33;;;2.23;;
13090;SDS011;6611;52.604;13.438;2023-06-24T18:41:31;3.43;;;2.30;;
13090;SDS011;6611;52.604;13.438;2023-06-24T18:46:33;3.27;;;2.63;;
13090;SDS011;6611;52.604;13.438;2023-06-24T18:51:34;4.70;;;2.50;;
13090;SDS011;6611;52.604;13.438;2023-06-24T18:56:37;3.67;;;2.80;;
13090;SDS011;6611;52.604;13.438;2023-06-24T19:01:39;4.87;;;2.67;;
13090;SDS011;6611;52.604;13.438;2023-06-24T19:06:42;3.33;;;2.73;;
13090;SDS011;6611;52.604;13.438;2023-06-24T19:11:45;3.60;;;3.13;;
13090;SDS011;6611;52.604;13.438;2023-06-24T19:16:47;3.53;;;3.17;;
13090;SDS011;6611;52.604;13.438;2023-06-24T19:21:49;4.63;;;3.33;;
13090;SDS011;6611;52.604;13.438;2023-06-24T19:26:52;4.80;;;2.97;;
13090;SDS011;6611;52.604;13.438;2023-06-24T19:31:54;4.60;;;3.47;;
13090;SDS011;6611;52.604;13.438;2023-06-24T19:36:55;3.73;;;3.30;;
13090;SDS011;6611;52.604;13.438;2023-06-24T19:41:58;4.20;;;3.80;;
13090;SDS011;6611;52.604;13.438;2023-06-24T19:47:00;4.83;;;3.70;;
13090;SDS011;6611;52.604;13.438;2023-06-24T19:52:02;4.73;;;4.13;;
13090;SDS011;6611;52.604;13.438;2023-06-24T19:57:06;5.60;;;4.23;;
13090;SDS011;6611;52.604;13.438;2023-06-24T20:02:07;5.33;;;4.43;;
13090;SDS011;6611;52.604;13.438;2023-06-24T20:07:09;12.83;;;5.40;;
13090;SDS011;6611;52.604;13.438;2023-06-24T20:12:12;6.63;;;4.90;;
13090;SDS011;6611;52.604;13.438;2023-06-24T20:17:14;6.50;;;5.80;;
13090;SDS011;6611;52.604;13.438;2023-06-24T20:22:15;7.83;;;6.10;;
13090;SDS011;6611;52.604;13.438;2023-06-24T20:27:18;8.80;;;6.67;;
13090;SDS011;6611;52.604;13.438;2023-06-24T20:32:20;8.77;;;6.03;;
13090;SDS011;6611;52.604;13.438;2023-06-24T20:37:22;9.47;;;6.37;;
13090;SDS011;6611;52.604;13.438;2023-06-24T20:42:25;6.93;;;5.83;;
13090;SDS011;6611;52.604;13.438;2023-06-24T20:47:26;6.87;;;5.53;;
13090;SDS011;6611;52.604;13.438;2023-06-24T20:52:28;6.97;;;6.23;;
13090;SDS011;6611;52.604;13.438;2023-06-24T20:57:31;6.50;;;5.80;;
13090;SDS011;6611;52.604;13.438;2023-06-24T21:02:33;7.00;;;5.83;;
13090;SDS011;6611;52.604;13.438;2023-06-24T21:07:35;6.20;;;5.47;;
13090;SDS011;6611;52.604;13.438;2023-06-24T21:12:38;6.97;;;5.83;;
13090;SDS011;6611;52.604;13.438;2023-06-24T21:17:39;7.80;;;5.60;;
13090;SDS011;6611;52.604;13.438;2023-06-24T21:22:41;7.73;;;6.23;;
13090;SDS011;6611;52.604;13.438;2023-06-24T21:27:44;10.03;;;7.40;;
13090;SDS011;6611;52.604;13.438;2023-06-24T21:32:46;8.40;;;7.43;;
13090;SDS011;6611;52.604;13.438;2023-06-24T21:37:47;9.83;;;7.70;;
13090;SDS011;6611;52.604;13.438;2023-06-24T21:42:50;11.80;;;7.57;;
13090;SDS011;6611;52.604;13.438;2023-06-24T21:47:52;13.37;;;9.40;;
13090;SDS011;6611;52.604;13.438;2023-06-24T21:52:54;11.50;;;9.53;;
13090;SDS011;6611;52.604;13.438;2023-06-24T21:57:57;13.33;;;10.97;;
13090;SDS011;6611;52.604;13.438;2023-06-24T22:02:58;19.03;;;14.97;;
13090;SDS011;6611;52.604;13.438;2023-06-24T22:08:00;22.23;;;15.87;;
13090;SDS011;6611;52.604;13.438;2023-06-24T22:13:03;23.53;;;18.37;;
13090;SDS011;6611;52.604;13.438;2023-06-24T22:18:05;24.10;;;20.30;;
13090;SDS011;6611;52.604;13.438;2023-06-24T22:23:07;25.67;;;20.40;;
13090;SDS011;6611;52.604;13.438;2023-06-24T22:28:10;30.37;;;22.80;;
13090;SDS011;6611;52.604;13.438;2023-06-24T22:33:11;28.03;;;21.13;;
13090;SDS011;6611;52.604;13.438;2023-06-24T22:38:13;21.60;;;16.73;;
13090;SDS011;6611;52.604;13.438;2023-06-24T22:43:16;18.93;;;15.43;;
13090;SDS011;6611;52.604;13.438;2023-06-24T22:48:17;20.83;;;14.80;;
13090;SDS011;6611;52.604;13.438;2023-06-24T22:53:19;20.10;;;15.03;;
13090;SDS011;6611;52.604;13.438;2023-06-24T22:58:22;19.57;;;14.47;;
13090;SDS011;6611;52.604;13.438;2023-06-24T23:03:24;17.17;;;13.63;;
13090;SDS011;6611;52.604;13.438;2023-06-24T23:08:26;17.40;;;13.67;;
13090;SDS011;6611;52.604;13.438;2023-06-24T23:13:29;19.13;;;14.67;;
13090;SDS011;6611;52.604;13.438;2023-06-24T23:18:32;18.70;;;14.43;;
13090;SDS011;6611;52.604;13.438;2023-06-24T23:23:35;15.10;;;12.60;;
13090;SDS011;6611;52.604;13.438;2023-06-24T23:28:38;14.67;;;12.47;;
13090;SDS011;6611;52.604;13.438;2023-06-24T23:33:45;15.27;;;12.50;;
13090;SDS011;6611;52.604;13.438;2023-06-24T23:38:47;16.07;;;14.13;;
13090;SDS011;6611;52.604;13.438;2023-06-24T23:43:50;19.57;;;14.63;;
13090;SDS011;6611;52.604;13.438;2023-06-24T23:48:52;19.03;;;15.50;;
13090;SDS011;6611;52.604;13.438;2023-06-24T23:53:54;18.93;;;15.27;;
13090;SDS011;6611;52.604;13.438;2023-06-24T23:58:57;17.00;;;13.63;;
